createdAt,value
2023-03-11T00:00:23.948Z,98973.00
2023-03-11T00:02:53.895Z,98978.25
2023-03-11T00:05:24.368Z,98976.97
2023-03-11T00:07:52.010Z,98978.94
2023-03-11T00:10:21.377Z,98971.50
2023-03-11T00:12:49.663Z,98969.59
2023-03-11T00:15:17.667Z,98983.31
2023-03-11T00:17:45.320Z,98985.44
2023-03-11T00:20:19.724Z,98990.75
2023-03-11T00:22:47.711Z,99002.66
2023-03-11T00:25:15.769Z,99000.78
2023-03-11T00:27:44.211Z,99005.06
2023-03-11T00:30:12.933Z,99022.06
2023-03-11T00:32:41.114Z,99016.97
2023-03-11T00:35:12.428Z,99029.38
2023-03-11T00:37:41.922Z,99035.19
2023-03-11T00:40:13.450Z,99040.09
2023-03-11T00:42:41.789Z,99039.69
2023-03-11T00:45:11.886Z,99048.09
2023-03-11T00:47:42.257Z,99052.13
2023-03-11T00:50:12.229Z,99042.94
2023-03-11T00:52:41.620Z,99046.63
2023-03-11T00:55:10.462Z,99041.50
2023-03-11T00:57:40.181Z,99060.34
2023-03-11T01:00:11.826Z,99058.63
2023-03-11T01:02:40.197Z,99063.88
2023-03-11T01:05:08.196Z,99075.84
2023-03-11T01:07:36.005Z,99061.06
2023-03-11T01:10:06.527Z,99070.31
2023-03-11T01:12:34.483Z,99073.78
2023-03-11T01:15:03.424Z,99066.91
2023-03-11T01:17:31.268Z,99068.72
2023-03-11T01:19:59.213Z,99067.06
2023-03-11T01:22:27.359Z,99063.56
2023-03-11T01:24:56.311Z,99065.88
2023-03-11T01:27:26.257Z,99073.38
2023-03-11T01:29:53.958Z,99060.44
2023-03-11T01:32:22.074Z,99061.31
2023-03-11T01:34:49.643Z,99073.94
2023-03-11T01:37:17.733Z,99074.63
2023-03-11T01:39:45.640Z,99074.34
2023-03-11T01:42:14.565Z,99076.88
2023-03-11T01:44:44.293Z,99083.03
2023-03-11T01:47:33.126Z,99093.47
2023-03-11T01:50:01.285Z,99092.78
2023-03-11T01:52:30.163Z,99092.13
2023-03-11T01:54:58.296Z,99090.63
2023-03-11T01:57:26.103Z,99092.03
2023-03-11T01:59:58.819Z,99100.53
2023-03-11T02:02:30.707Z,99103.22
2023-03-11T02:05:02.197Z,99105.00
2023-03-11T02:07:30.144Z,99110.25
2023-03-11T02:09:59.002Z,99113.38
2023-03-11T02:12:29.984Z,99109.19
2023-03-11T02:14:59.269Z,99106.53
2023-03-11T02:17:28.660Z,99104.53
2023-03-11T02:20:00.714Z,99098.59
2023-03-11T02:22:30.158Z,99109.47
2023-03-11T02:25:03.015Z,99108.91
2023-03-11T02:27:34.598Z,99112.47
2023-03-11T02:30:05.234Z,99109.22
2023-03-11T02:32:36.775Z,99104.19
2023-03-11T02:35:04.846Z,99103.75
2023-03-11T02:37:32.470Z,99107.91
2023-03-11T02:40:30.553Z,99102.06
2023-03-11T02:43:01.834Z,99099.28
2023-03-11T02:45:31.717Z,99110.94
2023-03-11T02:48:00.918Z,99098.31
2023-03-11T02:50:29.876Z,99104.88
2023-03-11T02:52:58.010Z,99104.38
2023-03-11T02:55:25.860Z,99101.97
2023-03-11T02:57:53.846Z,99105.13
2023-03-11T03:00:23.777Z,99112.63
2023-03-11T03:02:57.514Z,99118.44
2023-03-11T03:05:26.806Z,99130.41
2023-03-11T03:07:54.510Z,99137.53
2023-03-11T03:10:22.750Z,99130.28
2023-03-11T03:12:50.927Z,99144.63
2023-03-11T03:15:18.675Z,99148.47
2023-03-11T03:17:48.344Z,99139.50
2023-03-11T03:20:16.005Z,99137.50
2023-03-11T03:22:49.492Z,99142.63
2023-03-11T03:25:19.578Z,99139.72
2023-03-11T03:27:48.314Z,99141.66
2023-03-11T03:30:16.206Z,99141.91
2023-03-11T03:32:44.697Z,99147.59
2023-03-11T03:35:17.574Z,99150.69
2023-03-11T03:37:58.122Z,99148.59
2023-03-11T03:40:26.460Z,99156.44
2023-03-11T03:42:55.860Z,99155.03
2023-03-11T03:45:23.919Z,99142.75
2023-03-11T03:47:53.831Z,99137.78
2023-03-11T03:50:24.869Z,99150.63
2023-03-11T03:52:54.562Z,99151.50
2023-03-11T03:55:24.323Z,99153.88
2023-03-11T03:57:52.795Z,99153.06
2023-03-11T04:00:24.059Z,99153.81
2023-03-11T04:02:58.358Z,99160.38
2023-03-11T04:05:36.559Z,99153.44
2023-03-11T04:08:04.656Z,99158.38
2023-03-11T04:10:32.439Z,99158.50
2023-03-11T04:13:00.310Z,99167.81
2023-03-11T04:15:28.653Z,99167.81
2023-03-11T04:17:56.840Z,99176.38
2023-03-11T04:20:24.581Z,99187.25
2023-03-11T04:22:55.739Z,99182.84
2023-03-11T04:25:25.896Z,99182.72
2023-03-11T04:27:53.813Z,99182.75
2023-03-11T04:30:22.840Z,99188.06
2023-03-11T04:32:55.269Z,99192.09
2023-03-11T04:35:23.502Z,99196.91
2023-03-11T04:37:51.625Z,99199.59
2023-03-11T04:40:21.197Z,99203.88
2023-03-11T04:42:49.243Z,99201.81
2023-03-11T04:45:18.576Z,99200.22
2023-03-11T04:47:48.665Z,99204.13
2023-03-11T04:50:17.183Z,99209.81
2023-03-11T04:52:45.108Z,99207.00
2023-03-11T04:55:13.753Z,99207.13
2023-03-11T04:57:44.764Z,99210.75
2023-03-11T05:00:15.619Z,99211.53
2023-03-11T05:02:47.122Z,99219.00
2023-03-11T05:05:15.161Z,99224.75
2023-03-11T05:07:44.075Z,99226.94
2023-03-11T05:10:13.720Z,99217.81
2023-03-11T05:12:41.721Z,99221.63
2023-03-11T05:15:11.531Z,99226.44
2023-03-11T05:17:40.039Z,99230.28
2023-03-11T05:20:08.947Z,99236.44
2023-03-11T05:22:36.499Z,99228.78
2023-03-11T05:25:04.463Z,99245.50
2023-03-11T05:27:32.136Z,99254.53
2023-03-11T05:29:59.809Z,99252.84
2023-03-11T05:32:30.700Z,99251.53
2023-03-11T05:34:58.649Z,99252.09
2023-03-11T05:37:26.284Z,99255.81
2023-03-11T05:39:55.091Z,99255.22
2023-03-11T05:42:23.841Z,99259.63
2023-03-11T05:44:54.310Z,99261.75
2023-03-11T05:47:23.909Z,99256.81
2023-03-11T05:49:53.190Z,99262.88
2023-03-11T05:52:22.026Z,99268.63
2023-03-11T05:54:51.496Z,99263.25
2023-03-11T05:57:22.777Z,99262.19
2023-03-11T05:59:50.387Z,99267.31
2023-03-11T06:02:18.908Z,99265.81
2023-03-11T06:04:46.988Z,99266.03
2023-03-11T06:07:16.817Z,99266.47
2023-03-11T06:09:47.188Z,99268.78
2023-03-11T06:12:18.436Z,99271.81
2023-03-11T06:15:25.101Z,99264.44
2023-03-11T06:17:54.318Z,99269.53
2023-03-11T06:20:22.758Z,99275.22
2023-03-11T06:22:53.224Z,99279.41
2023-03-11T06:25:24.728Z,99285.06
2023-03-11T06:27:54.327Z,99286.63
2023-03-11T06:30:25.172Z,99295.66
2023-03-11T06:33:05.007Z,99301.28
2023-03-11T06:35:33.094Z,99310.97
2023-03-11T06:38:02.981Z,99312.53
2023-03-11T06:40:30.607Z,99311.88
2023-03-11T06:42:58.399Z,99312.59
2023-03-11T06:45:28.301Z,99314.78
2023-03-11T06:47:56.167Z,99321.56
2023-03-11T06:50:24.564Z,99327.97
2023-03-11T06:52:54.498Z,99328.97
2023-03-11T06:55:23.645Z,99340.88
2023-03-11T06:57:52.298Z,99340.91
2023-03-11T07:00:20.273Z,99348.72
2023-03-11T07:02:53.600Z,99347.56
2023-03-11T07:05:21.920Z,99342.31
2023-03-11T07:07:55.899Z,99349.72
2023-03-11T07:10:26.542Z,99349.81
2023-03-11T07:12:54.179Z,99358.00
2023-03-11T07:15:22.437Z,99367.41
2023-03-11T07:17:50.308Z,99373.66
2023-03-11T07:20:19.050Z,99376.38
2023-03-11T07:22:46.715Z,99374.47
2023-03-11T07:25:14.945Z,99373.22
2023-03-11T07:27:44.539Z,99375.91
2023-03-11T07:30:12.773Z,99369.38
2023-03-11T07:32:40.677Z,99384.34
2023-03-11T07:35:09.021Z,99393.84
2023-03-11T07:37:36.548Z,99390.66
2023-03-11T07:40:04.438Z,99401.06
2023-03-11T07:42:33.911Z,99410.75
2023-03-11T07:45:02.992Z,99413.75
2023-03-11T07:47:30.854Z,99421.00
2023-03-11T07:49:58.695Z,99427.84
2023-03-11T07:52:26.271Z,99433.19
2023-03-11T07:54:53.830Z,99435.75
2023-03-11T07:57:21.600Z,99439.81
2023-03-11T07:59:49.337Z,99453.63
2023-03-11T08:02:18.492Z,99456.63
2023-03-11T08:04:46.013Z,99461.13
2023-03-11T08:07:13.859Z,99454.06
2023-03-11T08:09:41.728Z,99470.59
2023-03-11T08:12:09.929Z,99466.16
2023-03-11T08:14:39.253Z,99471.25
2023-03-11T08:17:06.967Z,99468.75
2023-03-11T08:19:36.107Z,99464.25
2023-03-11T08:22:04.581Z,99460.16
2023-03-11T08:24:32.762Z,99459.25
2023-03-11T08:27:00.562Z,99466.97
2023-03-11T08:29:28.505Z,99469.81
2023-03-11T08:31:56.233Z,99472.31
2023-03-11T08:34:23.873Z,99480.06
2023-03-11T08:36:53.026Z,99493.53
2023-03-11T08:39:20.696Z,99496.84
2023-03-11T08:41:48.276Z,99506.69
2023-03-11T08:44:16.031Z,99500.53
2023-03-11T08:46:43.785Z,99507.09
2023-03-11T08:49:11.506Z,99506.91
2023-03-11T08:51:39.619Z,99511.53
2023-03-11T08:54:08.913Z,99502.66
2023-03-11T08:56:37.101Z,99508.78
2023-03-11T08:59:04.947Z,99517.63
2023-03-11T09:01:32.869Z,99509.75
2023-03-11T09:04:00.327Z,99506.69
2023-03-11T09:06:30.470Z,99512.31
2023-03-11T09:08:58.661Z,99511.44
2023-03-11T09:11:27.516Z,99516.72
2023-03-11T09:13:55.189Z,99514.88
2023-03-11T09:16:23.982Z,99516.53
2023-03-11T09:18:51.902Z,99511.59
2023-03-11T09:21:19.692Z,99514.19
2023-03-11T09:23:47.839Z,99508.50
2023-03-11T09:26:15.273Z,99507.81
2023-03-11T09:28:49.472Z,99508.59
2023-03-11T09:31:18.035Z,99503.66
2023-03-11T09:33:46.249Z,99511.34
2023-03-11T09:36:15.054Z,99514.81
2023-03-11T09:38:42.755Z,99512.13
2023-03-11T09:41:19.814Z,99504.81
2023-03-11T09:43:55.777Z,99505.19
2023-03-11T09:46:34.693Z,99517.34
2023-03-11T09:49:06.848Z,99516.47
2023-03-11T09:51:37.213Z,99509.81
2023-03-11T09:54:06.231Z,99515.25
2023-03-11T09:56:35.996Z,99512.97
2023-03-11T09:59:07.656Z,99513.84
2023-03-11T10:01:37.693Z,99512.19
2023-03-11T10:04:08.164Z,99516.94
2023-03-11T10:06:36.261Z,99520.97
2023-03-11T10:09:08.658Z,99514.91
2023-03-11T10:11:45.353Z,99521.31
2023-03-11T10:14:23.044Z,99520.31
2023-03-11T10:16:57.013Z,99529.31
2023-03-11T10:19:31.431Z,99532.34
2023-03-11T10:22:04.942Z,99527.38
2023-03-11T10:24:40.966Z,99528.84
2023-03-11T10:27:13.224Z,99526.59
2023-03-11T10:29:46.182Z,99525.63
2023-03-11T10:32:16.727Z,99528.38
2023-03-11T10:34:47.241Z,99532.16
2023-03-11T10:37:18.490Z,99532.47
2023-03-11T10:39:47.861Z,99535.59
2023-03-11T10:42:18.857Z,99538.59
2023-03-11T10:44:48.364Z,99536.66
2023-03-11T10:47:19.429Z,99543.84
2023-03-11T10:49:47.709Z,99542.63
2023-03-11T10:52:16.376Z,99551.81
2023-03-11T10:54:46.474Z,99545.81
2023-03-11T10:57:22.884Z,99556.47
2023-03-11T10:59:53.207Z,99552.03
2023-03-11T11:02:26.234Z,99550.81
2023-03-11T11:05:05.823Z,99546.72
2023-03-11T11:07:35.318Z,99539.44
2023-03-11T11:10:18.055Z,99545.59
2023-03-11T11:13:04.138Z,99553.31
2023-03-11T11:15:34.717Z,99560.75
2023-03-11T11:18:03.836Z,99559.75
2023-03-11T11:20:33.044Z,99552.38
2023-03-11T11:23:02.285Z,99550.09
2023-03-11T11:25:35.664Z,99552.47
2023-03-11T11:28:05.657Z,99554.81
2023-03-11T11:30:35.311Z,99570.75
2023-03-11T11:33:22.407Z,99562.34
2023-03-11T11:35:52.516Z,99562.38
2023-03-11T11:38:24.223Z,99557.47
2023-03-11T11:40:52.784Z,99560.16
2023-03-11T11:43:21.538Z,99566.78
2023-03-11T11:45:56.225Z,99562.31
2023-03-11T11:48:27.506Z,99560.88
2023-03-11T11:50:59.510Z,99561.72
2023-03-11T11:53:30.188Z,99555.06
2023-03-11T11:55:58.535Z,99556.91
2023-03-11T11:58:26.660Z,99561.81
2023-03-11T12:01:03.022Z,99556.19
2023-03-11T12:03:45.988Z,99550.84
2023-03-11T12:06:19.213Z,99562.03
2023-03-11T12:08:52.467Z,99563.66
2023-03-11T12:11:23.895Z,99555.94
2023-03-11T12:14:02.198Z,99555.00
2023-03-11T12:16:38.551Z,99543.88
2023-03-11T12:19:11.345Z,99544.03
2023-03-11T12:21:49.468Z,99539.91
2023-03-11T12:24:29.314Z,99541.78
2023-03-11T12:26:59.834Z,99540.41
2023-03-11T12:29:30.025Z,99537.50
2023-03-11T12:32:00.909Z,99535.34
2023-03-11T12:34:29.622Z,99535.19
2023-03-11T12:36:58.469Z,99533.69
2023-03-11T12:39:29.927Z,99531.50
2023-03-11T12:42:18.748Z,99536.66
2023-03-11T12:44:46.987Z,99538.63
2023-03-11T12:47:27.177Z,99532.31
2023-03-11T12:49:55.931Z,99532.03
2023-03-11T12:52:28.287Z,99525.91
2023-03-11T12:55:14.569Z,99529.03
2023-03-11T12:57:51.909Z,99544.94
2023-03-11T13:00:24.668Z,99546.34
2023-03-11T13:03:10.994Z,99543.53
2023-03-11T13:05:52.003Z,99547.06
2023-03-11T13:08:21.885Z,99540.78
2023-03-11T13:10:50.616Z,99547.69
2023-03-11T13:13:30.768Z,99562.28
2023-03-11T13:15:59.293Z,99552.38
2023-03-11T13:18:27.754Z,99560.56
2023-03-11T13:20:58.000Z,99563.78
2023-03-11T13:23:27.533Z,99560.13
2023-03-11T13:26:06.754Z,99560.19
2023-03-11T13:28:47.369Z,99557.59
2023-03-11T13:31:25.826Z,99564.31
2023-03-11T13:33:54.653Z,99579.59
2023-03-11T13:36:33.910Z,99570.53
2023-03-11T13:39:08.799Z,99577.72
2023-03-11T13:41:37.896Z,99588.59
2023-03-11T13:44:12.656Z,99576.69
2023-03-11T13:46:43.051Z,99580.59
2023-03-11T13:49:17.826Z,99575.97
2023-03-11T13:51:48.615Z,99579.66
2023-03-11T13:54:33.410Z,99573.97
2023-03-11T13:57:02.271Z,99587.13
2023-03-11T13:59:30.989Z,99593.28
2023-03-11T14:02:00.838Z,99594.19
2023-03-11T14:04:30.341Z,99594.19
2023-03-11T14:07:13.332Z,99593.91
2023-03-11T14:09:41.012Z,99588.28
2023-03-11T14:12:08.927Z,99587.22
2023-03-11T14:14:43.782Z,99591.50
2023-03-11T14:17:14.773Z,99598.25
2023-03-11T14:19:42.884Z,99599.66
2023-03-11T14:22:12.394Z,99601.91
2023-03-11T14:24:40.721Z,99601.34
2023-03-11T14:27:10.031Z,99592.53
2023-03-11T14:29:39.012Z,99600.97
2023-03-11T14:32:17.662Z,99601.31
2023-03-11T14:34:46.160Z,99602.22
2023-03-11T14:37:25.083Z,99614.63
2023-03-11T14:39:54.277Z,99599.44
2023-03-11T14:42:26.041Z,99604.50
2023-03-11T14:44:58.225Z,99596.69
2023-03-11T14:47:30.439Z,99585.03
2023-03-11T14:49:59.202Z,99589.00
2023-03-11T14:52:34.530Z,99587.13
2023-03-11T14:55:03.250Z,99582.59
2023-03-11T14:57:38.249Z,99580.31
2023-03-11T15:00:08.861Z,99578.84
2023-03-11T15:02:47.822Z,99586.13
2023-03-11T15:05:19.420Z,99583.84
2023-03-11T15:07:51.031Z,99584.88
2023-03-11T15:10:18.885Z,99588.75
2023-03-11T15:12:46.659Z,99602.38
2023-03-11T15:15:24.101Z,99605.03
2023-03-11T15:17:55.473Z,99611.13
2023-03-11T15:20:27.479Z,99611.38
2023-03-11T15:23:01.528Z,99605.06
2023-03-11T15:25:30.472Z,99603.06
2023-03-11T15:27:58.453Z,99606.53
2023-03-11T15:30:27.326Z,99597.13
2023-03-11T15:32:55.119Z,99601.34
2023-03-11T15:35:23.464Z,99593.63
2023-03-11T15:37:52.230Z,99594.03
2023-03-11T15:40:44.842Z,99589.13
2023-03-11T15:43:24.522Z,99603.13
2023-03-11T15:45:54.372Z,99597.03
2023-03-11T15:48:22.721Z,99606.94
2023-03-11T15:50:53.778Z,99611.47
2023-03-11T15:53:22.402Z,99615.34
2023-03-11T15:55:51.539Z,99619.81
2023-03-11T15:58:20.597Z,99617.59
2023-03-11T16:00:49.260Z,99614.72
2023-03-11T16:03:22.918Z,99618.94
2023-03-11T16:05:50.759Z,99619.72
2023-03-11T16:08:18.306Z,99622.81
2023-03-11T16:10:46.015Z,99634.28
2023-03-11T16:13:15.861Z,99626.31
2023-03-11T16:15:45.937Z,99628.34
2023-03-11T16:18:13.789Z,99629.88
2023-03-11T16:20:43.571Z,99627.81
2023-03-11T16:23:13.892Z,99622.75
2023-03-11T16:25:41.764Z,99634.72
2023-03-11T16:28:12.441Z,99632.84
2023-03-11T16:30:41.721Z,99633.38
2023-03-11T16:33:09.363Z,99638.03
2023-03-11T16:35:38.198Z,99636.75
2023-03-11T16:38:06.280Z,99645.38
2023-03-11T16:40:34.219Z,99640.63
2023-03-11T16:43:02.614Z,99641.50
2023-03-11T16:45:30.521Z,99647.22
2023-03-11T16:48:00.060Z,99656.13
2023-03-11T16:50:28.369Z,99659.13
2023-03-11T16:52:57.760Z,99660.09
2023-03-11T16:55:26.109Z,99661.31
2023-03-11T16:57:54.754Z,99652.25
2023-03-11T17:00:27.079Z,99656.22
2023-03-11T17:02:55.514Z,99657.16
2023-03-11T17:05:25.221Z,99664.53
2023-03-11T17:08:01.126Z,99658.69
2023-03-11T17:10:30.321Z,99653.03
2023-03-11T17:12:59.140Z,99663.91
2023-03-11T17:15:27.139Z,99657.25
2023-03-11T17:17:54.997Z,99669.91
2023-03-11T17:20:26.184Z,99675.19
2023-03-11T17:22:55.291Z,99678.22
2023-03-11T17:25:23.508Z,99677.91
2023-03-11T17:27:52.795Z,99684.59
2023-03-11T17:30:35.562Z,99684.78
2023-03-11T17:33:04.716Z,99686.63
2023-03-11T17:35:34.923Z,99682.81
2023-03-11T17:38:03.516Z,99678.47
2023-03-11T17:40:33.014Z,99683.81
2023-03-11T17:43:01.040Z,99684.22
2023-03-11T17:45:29.417Z,99683.97
2023-03-11T17:47:58.030Z,99696.78
2023-03-11T17:50:28.917Z,99689.34
2023-03-11T17:52:58.537Z,99693.84
2023-03-11T17:55:26.840Z,99698.41
2023-03-11T17:57:54.966Z,99697.09
2023-03-11T18:00:23.379Z,99705.44
2023-03-11T18:02:51.443Z,99707.75
2023-03-11T18:05:19.693Z,99703.06
2023-03-11T18:07:48.706Z,99708.66
2023-03-11T18:10:18.760Z,99708.28
2023-03-11T18:12:48.181Z,99718.03
2023-03-11T18:15:19.772Z,99722.16
2023-03-11T18:17:48.611Z,99718.16
2023-03-11T18:20:17.979Z,99715.94
2023-03-11T18:22:46.858Z,99722.88
2023-03-11T18:25:15.110Z,99727.50
2023-03-11T18:27:45.248Z,99725.41
2023-03-11T18:30:14.587Z,99737.44
2023-03-11T18:32:43.110Z,99731.50
2023-03-11T18:35:14.364Z,99736.09
2023-03-11T18:37:42.156Z,99738.88
2023-03-11T18:40:10.900Z,99732.56
2023-03-11T18:42:38.851Z,99740.25
2023-03-11T18:45:08.822Z,99747.09
2023-03-11T18:47:37.866Z,99743.31
2023-03-11T18:50:05.782Z,99736.19
2023-03-11T18:52:33.847Z,99738.25
2023-03-11T18:55:01.668Z,99725.63
2023-03-11T18:57:29.506Z,99724.03
2023-03-11T18:59:57.123Z,99725.22
2023-03-11T19:02:31.083Z,99732.78
2023-03-11T19:04:59.024Z,99725.81
2023-03-11T19:07:26.735Z,99733.91
2023-03-11T19:09:54.481Z,99737.44
2023-03-11T19:12:22.090Z,99734.09
2023-03-11T19:14:50.447Z,99725.63
2023-03-11T19:17:18.341Z,99727.22
2023-03-11T19:19:47.842Z,99722.56
2023-03-11T19:22:15.556Z,99737.44
2023-03-11T19:24:43.806Z,99732.63
2023-03-11T19:27:12.941Z,99730.81
2023-03-11T19:29:40.683Z,99740.16
2023-03-11T19:32:08.600Z,99734.31
2023-03-11T19:34:36.455Z,99747.16
2023-03-11T19:37:05.424Z,99744.41
2023-03-11T19:39:33.106Z,99744.75
2023-03-11T19:42:01.479Z,99743.28
2023-03-11T19:44:29.426Z,99746.00
2023-03-11T19:46:57.503Z,99746.91
2023-03-11T19:49:25.326Z,99747.06
2023-03-11T19:51:54.767Z,99754.03
2023-03-11T19:54:23.840Z,99755.63
2023-03-11T19:56:51.842Z,99752.16
2023-03-11T19:59:19.862Z,99754.28
2023-03-11T20:01:48.254Z,99751.78
2023-03-11T20:04:16.885Z,99757.59
2023-03-11T20:06:45.255Z,99753.53
2023-03-11T20:09:16.281Z,99768.50
2023-03-11T20:11:45.912Z,99764.59
2023-03-11T20:14:13.838Z,99770.03
2023-03-11T20:16:41.875Z,99778.41
2023-03-11T20:19:09.565Z,99783.50
2023-03-11T20:21:45.627Z,99782.06
2023-03-11T20:24:14.679Z,99784.72
2023-03-11T20:26:42.513Z,99785.75
2023-03-11T20:29:11.619Z,99780.97
2023-03-11T20:31:39.559Z,99780.47
2023-03-11T20:34:07.345Z,99769.88
2023-03-11T20:36:35.530Z,99775.41
2023-03-11T20:39:03.369Z,99783.81
2023-03-11T20:41:37.861Z,99786.34
2023-03-11T20:44:07.077Z,99788.31
2023-03-11T20:46:39.397Z,99791.41
2023-03-11T20:49:08.061Z,99792.22
2023-03-11T20:51:35.666Z,99794.88
2023-03-11T20:54:03.500Z,99795.97
2023-03-11T20:56:31.414Z,99795.75
2023-03-11T20:59:01.076Z,99795.94
2023-03-11T21:01:29.741Z,99799.16
2023-03-11T21:03:59.683Z,99797.38
2023-03-11T21:06:28.898Z,99806.50
2023-03-11T21:08:57.678Z,99810.75
2023-03-11T21:11:25.683Z,99803.97
2023-03-11T21:13:53.806Z,99808.19
2023-03-11T21:16:21.826Z,99797.31
2023-03-11T21:18:49.720Z,99794.81
2023-03-11T21:21:19.334Z,99799.03
2023-03-11T21:23:47.205Z,99797.31
2023-03-11T21:26:16.332Z,99797.38
2023-03-11T21:28:47.152Z,99796.69
2023-03-11T21:31:17.193Z,99793.66
2023-03-11T21:33:45.288Z,99798.78
2023-03-11T21:36:13.682Z,99805.56
2023-03-11T21:38:43.274Z,99794.38
2023-03-11T21:41:12.557Z,99799.53
2023-03-11T21:43:41.611Z,99799.41
2023-03-11T21:46:10.919Z,99794.31
2023-03-11T21:48:39.093Z,99795.31
2023-03-11T21:51:07.877Z,99792.84
2023-03-11T21:53:36.335Z,99795.28
2023-03-11T21:56:06.251Z,99799.69
2023-03-11T21:58:34.642Z,99804.81
2023-03-11T22:01:02.661Z,99800.53
2023-03-11T22:03:35.592Z,99797.06
2023-03-11T22:06:04.856Z,99785.13
2023-03-11T22:08:32.666Z,99792.75
2023-03-11T22:11:01.612Z,99794.63
2023-03-11T22:13:30.845Z,99801.41
2023-03-11T22:15:58.824Z,99800.69
2023-03-11T22:18:27.040Z,99807.25
2023-03-11T22:20:55.103Z,99803.81
2023-03-11T22:23:22.963Z,99803.88
2023-03-11T22:25:50.500Z,99795.44
2023-03-11T22:28:18.332Z,99798.06
2023-03-11T22:30:47.369Z,99802.25
2023-03-11T22:33:15.459Z,99799.78
2023-03-11T22:35:50.387Z,99792.22
2023-03-11T22:38:18.298Z,99802.47
2023-03-11T22:40:46.246Z,99802.75
2023-03-11T22:43:14.840Z,99810.59
2023-03-11T22:45:42.628Z,99803.97
2023-03-11T22:48:12.469Z,99809.91
2023-03-11T22:50:41.224Z,99813.03
2023-03-11T22:53:09.273Z,99810.25
2023-03-11T22:55:39.460Z,99813.78
2023-03-11T22:58:07.161Z,99803.69
2023-03-11T23:00:35.278Z,99806.38
2023-03-11T23:03:03.193Z,99813.25
2023-03-11T23:05:32.706Z,99811.66
2023-03-11T23:08:00.769Z,99811.59
2023-03-11T23:10:28.583Z,99820.72
2023-03-11T23:12:56.520Z,99817.25
2023-03-11T23:15:24.610Z,99814.56
2023-03-11T23:17:52.585Z,99820.53
2023-03-11T23:20:20.230Z,99821.31
2023-03-11T23:22:49.254Z,99814.25
2023-03-11T23:25:17.509Z,99827.72
2023-03-11T23:27:45.995Z,99825.34
2023-03-11T23:30:17.426Z,99833.25
2023-03-11T23:32:46.135Z,99815.56
2023-03-11T23:35:14.085Z,99812.97
2023-03-11T23:37:41.876Z,99812.16
2023-03-11T23:40:12.328Z,99811.31
2023-03-11T23:42:40.161Z,99813.16
2023-03-11T23:45:08.949Z,99807.22
2023-03-11T23:47:37.181Z,99798.66
2023-03-11T23:50:05.117Z,99811.38
2023-03-11T23:52:33.812Z,99812.66
2023-03-11T23:55:02.158Z,99819.78
2023-03-11T23:57:33.010Z,99820.94
